Terminal Aerodrome Forecast
Issued by NWS

Home | Current Version | Previous Version | Text Only | Print | Product List | Glossary On
Versions: 1 2 3 4 5 6 7 8 9 10 11 12 13 14 15 16
000
FTUS42 KMLB 230225 AAA
TAFTIX
TAF AMD
KTIX 230225Z 2302/2324 23014G26KT P6SM VCTS BKN035CB
      TEMPO 2302/2304 25020G40KT 2SM +TSRA BKN025CB
     FM230400 23015G25KT P6SM BKN035
     FM230600 24013G20KT P6SM BKN040
     FM231500 26022G32KT P6SM BKN045=

USA.gov is the U.S. government's official web portal to all federal, state and local government web resources and services.